Titan — WDG3294 — position and weather

sailwx.info

Track history (hours):
 
Tides and Currents Weather Stations Pressure Air Temp Water Temp Dewpoint Dewpoint Depression Visibility Wind Speed Wind Dir Waves Ship Positions

Titan

Owner: Titan Fishing, LLC, New Bedford, MA. More information available from US FCC via Universal Licensing System and Coast Guard Vessel Documentation Center.

Last reported at 2015-Feb-11 20:28 UTC. Time now 2015-Feb-28 00:41 UTC.
Position N 41°32' W 070°52'.
Warning: this ship's position is 16 days out of date.

; draft 4 m.

Type: Other ship. MMSI: 367524560.

Date/timePositionNaut miles runAvg speedWind from/ knotsBaromVisibWave heightAir tempDewpointWater temp
2015-Feb-11 20:28N 41°32' W 070°52'10 9.6
2015-Feb-11 19:25N 41°26' W 071°02'910.6
2015-Feb-11 18:33N 41°25' W 071°15'17 8.0
2015-Feb-11 16:29N 41°42' W 071°19'8 8.3
2015-Feb-11 15:33N 41°48' W 071°24'0 0.1
2015-Feb-11 14:18N 41°48' W 071°24'0 0.0
2015-Feb-11 13:33N 41°48' W 071°24'  
2015-Feb-05 14:31N 41°26' W 071°21'1010.4
2015-Feb-05 13:31N 41°25' W 071°07'10 9.6
2015-Feb-05 12:29N 41°30' W 070°55'  
Track history (hours):
 
Tides and Currents Weather Stations Pressure Air Temp Water Temp Dewpoint Dewpoint Depression Visibility Wind Speed Wind Dir Waves Ship Positions

Titan

Owner: Titan Fishing, LLC, New Bedford, MA. More information available from US FCC via Universal Licensing System and Coast Guard Vessel Documentation Center.

Last reported at 2015-Feb-11 20:28 UTC. Time now 2015-Feb-28 00:41 UTC.
Position N 41°32' W 070°52'.
Warning: this ship's position is 16 days out of date.

; draft 4 m.

Type: Other ship. MMSI: 367524560.

Date/timePositionNaut miles runAvg speedWind from/ knotsBaromVisibWave heightAir tempDewpointWater temp
2015-Feb-11 20:28N 41°32' W 070°52'10 9.6
2015-Feb-11 19:25N 41°26' W 071°02'910.6
2015-Feb-11 18:33N 41°25' W 071°15'17 8.0
2015-Feb-11 16:29N 41°42' W 071°19'8 8.3
2015-Feb-11 15:33N 41°48' W 071°24'0 0.1
2015-Feb-11 14:18N 41°48' W 071°24'0 0.0
2015-Feb-11 13:33N 41°48' W 071°24'  
2015-Feb-05 14:31N 41°26' W 071°21'1010.4
2015-Feb-05 13:31N 41°25' W 071°07'10 9.6
2015-Feb-05 12:29N 41°30' W 070°55'  

Dump ship's entire track history